sensor_id;sensor_type;location;lat;lon;timestamp;temperature;humidity
7206;DHT22;3644;53.480;10.004;2022-09-09T00:04:23;16.50;99.90
7206;DHT22;3644;53.480;10.004;2022-09-09T00:09:47;16.60;99.90
7206;DHT22;3644;53.480;10.004;2022-09-09T00:12:36;16.60;99.90
7206;DHT22;3644;53.480;10.004;2022-09-09T00:15:19;16.60;99.90
7206;DHT22;3644;53.480;10.004;2022-09-09T00:20:40;16.60;99.90
7206;DHT22;3644;53.480;10.004;2022-09-09T00:23:24;16.60;99.90
7206;DHT22;3644;53.480;10.004;2022-09-09T00:26:22;16.60;99.90
7206;DHT22;3644;53.480;10.004;2022-09-09T00:31:37;16.60;99.90
7206;DHT22;3644;53.480;10.004;2022-09-09T00:36:38;16.60;99.90
7206;DHT22;3644;53.480;10.004;2022-09-09T00:39:05;16.50;99.90
7206;DHT22;3644;53.480;10.004;2022-09-09T00:44:37;16.60;99.90
7206;DHT22;3644;53.480;10.004;2022-09-09T00:47:16;16.60;99.90
7206;DHT22;3644;53.480;10.004;2022-09-09T00:55:33;16.60;99.90
7206;DHT22;3644;53.480;10.004;2022-09-09T00:57:59;16.60;99.90
7206;DHT22;3644;53.480;10.004;2022-09-09T01:00:33;16.50;99.90
7206;DHT22;3644;53.480;10.004;2022-09-09T01:03:22;16.50;99.90
7206;DHT22;3644;53.480;10.004;2022-09-09T01:06:12;16.50;99.90
7206;DHT22;3644;53.480;10.004;2022-09-09T01:17:26;16.60;99.90
7206;DHT22;3644;53.480;10.004;2022-09-09T01:28:16;16.50;99.90
7206;DHT22;3644;53.480;10.004;2022-09-09T01:30:44;16.60;99.90
7206;DHT22;3644;53.480;10.004;2022-09-09T01:33:14;16.60;99.90
7206;DHT22;3644;53.480;10.004;2022-09-09T01:35:57;16.60;99.90
7206;DHT22;3644;53.480;10.004;2022-09-09T01:38:26;16.50;99.90
7206;DHT22;3644;53.480;10.004;2022-09-09T01:40:53;16.50;99.90
7206;DHT22;3644;53.480;10.004;2022-09-09T01:43:22;16.50;99.90
7206;DHT22;3644;53.480;10.004;2022-09-09T01:45:52;16.50;99.90
7206;DHT22;3644;53.480;10.004;2022-09-09T01:48:19;16.40;99.90
7206;DHT22;3644;53.480;10.004;2022-09-09T01:50:46;16.40;99.90
7206;DHT22;3644;53.480;10.004;2022-09-09T01:53:12;16.50;99.90
7206;DHT22;3644;53.480;10.004;2022-09-09T01:55:40;16.50;99.90
7206;DHT22;3644;53.480;10.004;2022-09-09T01:58:19;16.50;99.90
7206;DHT22;3644;53.480;10.004;2022-09-09T02:00:56;16.50;99.90
7206;DHT22;3644;53.480;10.004;2022-09-09T02:03:27;16.40;99.90
7206;DHT22;3644;53.480;10.004;2022-09-09T02:06:19;16.40;99.90
7206;DHT22;3644;53.480;10.004;2022-09-09T02:08:55;16.30;99.90
7206;DHT22;3644;53.480;10.004;2022-09-09T02:11:23;16.30;99.90
7206;DHT22;3644;53.480;10.004;2022-09-09T02:13:53;16.20;99.90
7206;DHT22;3644;53.480;10.004;2022-09-09T02:16:27;16.20;99.90
7206;DHT22;3644;53.480;10.004;2022-09-09T02:21:34;16.20;99.90
7206;DHT22;3644;53.480;10.004;2022-09-09T02:24:05;16.10;99.90
7206;DHT22;3644;53.480;10.004;2022-09-09T02:26:37;16.10;99.90
7206;DHT22;3644;53.480;10.004;2022-09-09T02:29:11;16.10;99.90
7206;DHT22;3644;53.480;10.004;2022-09-09T02:31:41;16.00;99.90
7206;DHT22;3644;53.480;10.004;2022-09-09T02:34:10;16.00;99.90
7206;DHT22;3644;53.480;10.004;2022-09-09T02:36:40;16.00;99.90
7206;DHT22;3644;53.480;10.004;2022-09-09T02:39:08;15.90;99.90
7206;DHT22;3644;53.480;10.004;2022-09-09T02:41:37;15.90;99.90
7206;DHT22;3644;53.480;10.004;2022-09-09T02:44:15;15.90;99.90
7206;DHT22;3644;53.480;10.004;2022-09-09T02:49:57;15.90;99.90
7206;DHT22;3644;53.480;10.004;2022-09-09T02:58:05;15.90;99.90
7206;DHT22;3644;53.480;10.004;2022-09-09T03:00:33;15.70;99.90
7206;DHT22;3644;53.480;10.004;2022-09-09T03:03:02;15.70;99.90
7206;DHT22;3644;53.480;10.004;2022-09-09T03:05:28;15.70;99.90
7206;DHT22;3644;53.480;10.004;2022-09-09T03:07:54;15.80;99.90
7206;DHT22;3644;53.480;10.004;2022-09-09T03:10:19;15.80;99.90
7206;DHT22;3644;53.480;10.004;2022-09-09T03:12:45;15.90;99.90
7206;DHT22;3644;53.480;10.004;2022-09-09T03:15:10;15.80;99.90
7206;DHT22;3644;53.480;10.004;2022-09-09T03:17:36;15.70;99.90
7206;DHT22;3644;53.480;10.004;2022-09-09T03:20:03;17.10;99.90
7206;DHT22;3644;53.480;10.004;2022-09-09T03:22:29;15.70;99.90
7206;DHT22;3644;53.480;10.004;2022-09-09T03:24:55;15.70;99.90
7206;DHT22;3644;53.480;10.004;2022-09-09T03:27:20;15.70;99.90
7206;DHT22;3644;53.480;10.004;2022-09-09T03:29:46;15.60;99.90
7206;DHT22;3644;53.480;10.004;2022-09-09T03:32:12;15.60;99.90
7206;DHT22;3644;53.480;10.004;2022-09-09T03:34:38;15.70;99.90
7206;DHT22;3644;53.480;10.004;2022-09-09T03:37:05;15.70;99.90
7206;DHT22;3644;53.480;10.004;2022-09-09T03:39:31;15.70;99.90
7206;DHT22;3644;53.480;10.004;2022-09-09T03:41:56;15.70;99.90
7206;DHT22;3644;53.480;10.004;2022-09-09T03:44:22;15.60;99.90
7206;DHT22;3644;53.480;10.004;2022-09-09T03:46:48;15.50;99.90
7206;DHT22;3644;53.480;10.004;2022-09-09T03:49:13;15.60;99.90
7206;DHT22;3644;53.480;10.004;2022-09-09T03:51:39;15.60;99.90
7206;DHT22;3644;53.480;10.004;2022-09-09T03:54:06;15.50;99.90
7206;DHT22;3644;53.480;10.004;2022-09-09T03:56:34;15.50;99.90
7206;DHT22;3644;53.480;10.004;2022-09-09T03:58:59;15.60;99.90
7206;DHT22;3644;53.480;10.004;2022-09-09T04:01:25;15.50;99.90
7206;DHT22;3644;53.480;10.004;2022-09-09T04:03:51;15.60;99.90
7206;DHT22;3644;53.480;10.004;2022-09-09T04:06:18;15.50;99.90
7206;DHT22;3644;53.480;10.004;2022-09-09T04:08:45;15.50;99.90
7206;DHT22;3644;53.480;10.004;2022-09-09T04:11:14;15.60;99.90
7206;DHT22;3644;53.480;10.004;2022-09-09T04:13:39;15.50;99.90
7206;DHT22;3644;53.480;10.004;2022-09-09T04:16:06;15.50;99.90
7206;DHT22;3644;53.480;10.004;2022-09-09T04:18:32;15.50;99.90
7206;DHT22;3644;53.480;10.004;2022-09-09T04:20:58;15.60;99.90
7206;DHT22;3644;53.480;10.004;2022-09-09T04:23:25;15.50;99.90
7206;DHT22;3644;53.480;10.004;2022-09-09T04:25:53;15.50;99.90
7206;DHT22;3644;53.480;10.004;2022-09-09T04:28:22;15.50;99.90
7206;DHT22;3644;53.480;10.004;2022-09-09T04:30:48;15.50;99.90
7206;DHT22;3644;53.480;10.004;2022-09-09T04:33:14;15.50;99.90
7206;DHT22;3644;53.480;10.004;2022-09-09T04:35:47;15.40;99.90
7206;DHT22;3644;53.480;10.004;2022-09-09T04:38:14;15.40;99.90
7206;DHT22;3644;53.480;10.004;2022-09-09T04:40:42;15.50;99.90
7206;DHT22;3644;53.480;10.004;2022-09-09T04:43:08;15.50;99.90
7206;DHT22;3644;53.480;10.004;2022-09-09T04:45:34;15.50;99.90
7206;DHT22;3644;53.480;10.004;2022-09-09T04:48:00;15.50;99.90
7206;DHT22;3644;53.480;10.004;2022-09-09T04:50:26;15.50;99.90
7206;DHT22;3644;53.480;10.004;2022-09-09T04:52:51;15.50;99.90
7206;DHT22;3644;53.480;10.004;2022-09-09T04:55:17;15.50;99.90
7206;DHT22;3644;53.480;10.004;2022-09-09T04:57:42;15.50;99.90
7206;DHT22;3644;53.480;10.004;2022-09-09T05:00:08;15.40;99.90
7206;DHT22;3644;53.480;10.004;2022-09-09T05:02:37;15.50;99.90
7206;DHT22;3644;53.480;10.004;2022-09-09T05:05:04;15.50;99.90
7206;DHT22;3644;53.480;10.004;2022-09-09T05:07:30;15.60;99.90
7206;DHT22;3644;53.480;10.004;2022-09-09T05:09:56;15.50;99.90
7206;DHT22;3644;53.480;10.004;2022-09-09T05:12:22;15.60;99.90
7206;DHT22;3644;53.480;10.004;2022-09-09T05:14:48;15.60;99.90
7206;DHT22;3644;53.480;10.004;2022-09-09T05:17:14;15.60;99.90
7206;DHT22;3644;53.480;10.004;2022-09-09T05:19:41;15.60;99.90
7206;DHT22;3644;53.480;10.004;2022-09-09T05:22:07;15.60;99.90
7206;DHT22;3644;53.480;10.004;2022-09-09T05:24:32;15.50;99.90
7206;DHT22;3644;53.480;10.004;2022-09-09T05:26:58;15.50;99.90
7206;DHT22;3644;53.480;10.004;2022-09-09T05:29:25;15.50;99.90
7206;DHT22;3644;53.480;10.004;2022-09-09T05:31:51;15.60;99.90
7206;DHT22;3644;53.480;10.004;2022-09-09T05:34:17;15.70;99.90
7206;DHT22;3644;53.480;10.004;2022-09-09T05:36:42;15.70;99.90
7206;DHT22;3644;53.480;10.004;2022-09-09T05:39:08;15.70;99.90
7206;DHT22;3644;53.480;10.004;2022-09-09T05:41:34;15.80;99.90
7206;DHT22;3644;53.480;10.004;2022-09-09T05:44:01;15.80;99.90
7206;DHT22;3644;53.480;10.004;2022-09-09T05:46:27;15.90;99.90
7206;DHT22;3644;53.480;10.004;2022-09-09T05:48:53;15.90;99.90
7206;DHT22;3644;53.480;10.004;2022-09-09T05:51:25;15.90;99.90
7206;DHT22;3644;53.480;10.004;2022-09-09T05:53:51;15.90;99.90
7206;DHT22;3644;53.480;10.004;2022-09-09T05:56:19;16.00;99.90
7206;DHT22;3644;53.480;10.004;2022-09-09T05:58:47;16.10;99.90
7206;DHT22;3644;53.480;10.004;2022-09-09T06:01:19;16.10;99.90
7206;DHT22;3644;53.480;10.004;2022-09-09T06:03:47;16.10;99.90
7206;DHT22;3644;53.480;10.004;2022-09-09T06:06:18;16.20;99.90
7206;DHT22;3644;53.480;10.004;2022-09-09T06:08:46;16.20;99.90
7206;DHT22;3644;53.480;10.004;2022-09-09T06:11:15;16.20;99.90
7206;DHT22;3644;53.480;10.004;2022-09-09T06:13:41;16.20;99.90
7206;DHT22;3644;53.480;10.004;2022-09-09T06:16:11;16.20;99.90
7206;DHT22;3644;53.480;10.004;2022-09-09T06:18:38;16.20;99.90
7206;DHT22;3644;53.480;10.004;2022-09-09T06:21:05;16.20;99.90
7206;DHT22;3644;53.480;10.004;2022-09-09T06:23:32;16.20;99.90
7206;DHT22;3644;53.480;10.004;2022-09-09T06:26:07;16.20;99.90
7206;DHT22;3644;53.480;10.004;2022-09-09T06:28:33;16.30;99.90
7206;DHT22;3644;53.480;10.004;2022-09-09T06:31:00;16.30;99.90
7206;DHT22;3644;53.480;10.004;2022-09-09T06:33:30;16.40;99.90
7206;DHT22;3644;53.480;10.004;2022-09-09T06:35:55;16.40;99.90
7206;DHT22;3644;53.480;10.004;2022-09-09T06:38:22;16.40;99.90
7206;DHT22;3644;53.480;10.004;2022-09-09T06:40:53;16.40;99.90
7206;DHT22;3644;53.480;10.004;2022-09-09T06:43:20;16.50;99.90
7206;DHT22;3644;53.480;10.004;2022-09-09T06:45:56;16.60;99.90
7206;DHT22;3644;53.480;10.004;2022-09-09T06:48:22;16.70;99.90
7206;DHT22;3644;53.480;10.004;2022-09-09T06:50:47;16.80;99.90
7206;DHT22;3644;53.480;10.004;2022-09-09T06:53:17;16.80;99.90
7206;DHT22;3644;53.480;10.004;2022-09-09T06:55:44;17.00;99.90
7206;DHT22;3644;53.480;10.004;2022-09-09T06:58:10;17.00;99.90
7206;DHT22;3644;53.480;10.004;2022-09-09T07:00:36;17.10;99.90
7206;DHT22;3644;53.480;10.004;2022-09-09T07:03:04;17.20;99.90
7206;DHT22;3644;53.480;10.004;2022-09-09T07:05:30;17.20;99.90
7206;DHT22;3644;53.480;10.004;2022-09-09T07:07:56;17.20;99.90
7206;DHT22;3644;53.480;10.004;2022-09-09T07:10:21;17.20;99.90
7206;DHT22;3644;53.480;10.004;2022-09-09T07:12:51;17.30;99.90
7206;DHT22;3644;53.480;10.004;2022-09-09T07:15:17;17.40;99.90
7206;DHT22;3644;53.480;10.004;2022-09-09T07:17:44;17.40;99.90
7206;DHT22;3644;53.480;10.004;2022-09-09T07:20:10;17.40;99.90
7206;DHT22;3644;53.480;10.004;2022-09-09T07:22:36;17.50;99.90
7206;DHT22;3644;53.480;10.004;2022-09-09T07:25:02;17.50;99.90
7206;DHT22;3644;53.480;10.004;2022-09-09T07:27:28;17.50;99.90
7206;DHT22;3644;53.480;10.004;2022-09-09T07:29:53;17.60;99.90
7206;DHT22;3644;53.480;10.004;2022-09-09T07:32:19;17.70;99.90
7206;DHT22;3644;53.480;10.004;2022-09-09T07:34:45;17.70;99.90
7206;DHT22;3644;53.480;10.004;2022-09-09T07:37:12;17.80;99.90
7206;DHT22;3644;53.480;10.004;2022-09-09T07:39:39;17.80;99.90
7206;DHT22;3644;53.480;10.004;2022-09-09T07:42:05;17.90;99.90
7206;DHT22;3644;53.480;10.004;2022-09-09T07:44:31;18.10;99.90
7206;DHT22;3644;53.480;10.004;2022-09-09T07:47:00;18.20;99.90
7206;DHT22;3644;53.480;10.004;2022-09-09T07:49:26;18.20;99.90
7206;DHT22;3644;53.480;10.004;2022-09-09T07:51:51;18.30;99.90
7206;DHT22;3644;53.480;10.004;2022-09-09T07:54:18;18.30;99.90
7206;DHT22;3644;53.480;10.004;2022-09-09T07:56:49;18.40;99.90
7206;DHT22;3644;53.480;10.004;2022-09-09T07:59:15;18.40;99.90
7206;DHT22;3644;53.480;10.004;2022-09-09T08:01:49;18.50;99.90
7206;DHT22;3644;53.480;10.004;2022-09-09T08:04:19;18.60;99.90
7206;DHT22;3644;53.480;10.004;2022-09-09T08:06:57;18.60;99.90
7206;DHT22;3644;53.480;10.004;2022-09-09T08:09:24;18.70;99.90
7206;DHT22;3644;53.480;10.004;2022-09-09T08:11:52;18.70;99.90
7206;DHT22;3644;53.480;10.004;2022-09-09T08:14:18;18.80;99.90
7206;DHT22;3644;53.480;10.004;2022-09-09T08:16:46;18.90;99.90
7206;DHT22;3644;53.480;10.004;2022-09-09T08:19:12;18.90;99.90
7206;DHT22;3644;53.480;10.004;2022-09-09T08:21:39;19.00;99.90
7206;DHT22;3644;53.480;10.004;2022-09-09T08:24:06;18.90;99.90
7206;DHT22;3644;53.480;10.004;2022-09-09T08:26:35;18.90;99.90
7206;DHT22;3644;53.480;10.004;2022-09-09T08:29:02;19.00;99.90
7206;DHT22;3644;53.480;10.004;2022-09-09T08:31:31;18.90;99.90
7206;DHT22;3644;53.480;10.004;2022-09-09T08:33:59;19.10;99.90
7206;DHT22;3644;53.480;10.004;2022-09-09T08:36:27;19.00;99.90
7206;DHT22;3644;53.480;10.004;2022-09-09T08:38:56;19.10;99.90
7206;DHT22;3644;53.480;10.004;2022-09-09T08:55:27;19.50;99.90
7206;DHT22;3644;53.480;10.004;2022-09-09T08:57:56;19.60;99.90
7206;DHT22;3644;53.480;10.004;2022-09-09T09:00:23;19.70;99.90
7206;DHT22;3644;53.480;10.004;2022-09-09T09:05:44;20.00;99.90
7206;DHT22;3644;53.480;10.004;2022-09-09T09:08:36;20.10;99.90
7206;DHT22;3644;53.480;10.004;2022-09-09T09:11:06;20.20;99.90
7206;DHT22;3644;53.480;10.004;2022-09-09T09:14:03;20.30;99.90
7206;DHT22;3644;53.480;10.004;2022-09-09T09:16:54;20.40;99.90
7206;DHT22;3644;53.480;10.004;2022-09-09T09:19:22;20.40;99.90
7206;DHT22;3644;53.480;10.004;2022-09-09T09:21:57;20.40;99.90
7206;DHT22;3644;53.480;10.004;2022-09-09T09:26:58;20.60;99.90
7206;DHT22;3644;53.480;10.004;2022-09-09T09:29:26;20.70;99.90
7206;DHT22;3644;53.480;10.004;2022-09-09T09:31:54;20.90;99.90
7206;DHT22;3644;53.480;10.004;2022-09-09T09:34:20;20.90;99.90
7206;DHT22;3644;53.480;10.004;2022-09-09T09:36:54;21.00;99.90
7206;DHT22;3644;53.480;10.004;2022-09-09T09:39:29;21.10;99.90
7206;DHT22;3644;53.480;10.004;2022-09-09T09:41:55;21.20;99.90
7206;DHT22;3644;53.480;10.004;2022-09-09T09:44:25;21.30;99.90
7206;DHT22;3644;53.480;10.004;2022-09-09T09:46:52;21.40;99.90
7206;DHT22;3644;53.480;10.004;2022-09-09T09:49:18;21.50;99.90
7206;DHT22;3644;53.480;10.004;2022-09-09T09:51:44;21.50;99.90
7206;DHT22;3644;53.480;10.004;2022-09-09T09:54:18;21.40;99.90
7206;DHT22;3644;53.480;10.004;2022-09-09T09:56:48;21.40;99.90
7206;DHT22;3644;53.480;10.004;2022-09-09T09:59:22;21.40;99.90
7206;DHT22;3644;53.480;10.004;2022-09-09T10:01:48;21.50;99.90
7206;DHT22;3644;53.480;10.004;2022-09-09T10:04:18;21.50;99.90
7206;DHT22;3644;53.480;10.004;2022-09-09T10:06:45;21.50;99.90
7206;DHT22;3644;53.480;10.004;2022-09-09T10:09:30;21.50;99.90
7206;DHT22;3644;53.480;10.004;2022-09-09T10:20:07;21.60;99.90
7206;DHT22;3644;53.480;10.004;2022-09-09T10:22:33;21.60;99.90
7206;DHT22;3644;53.480;10.004;2022-09-09T10:25:24;21.80;99.90
7206;DHT22;3644;53.480;10.004;2022-09-09T10:31:05;21.80;99.90
7206;DHT22;3644;53.480;10.004;2022-09-09T10:41:40;22.00;99.90
7206;DHT22;3644;53.480;10.004;2022-09-09T10:49:58;21.90;99.90
7206;DHT22;3644;53.480;10.004;2022-09-09T10:55:12;21.80;99.90
7206;DHT22;3644;53.480;10.004;2022-09-09T10:57:45;21.90;99.90
7206;DHT22;3644;53.480;10.004;2022-09-09T11:00:20;21.90;99.90
7206;DHT22;3644;53.480;10.004;2022-09-09T11:02:56;22.10;99.90
7206;DHT22;3644;53.480;10.004;2022-09-09T11:05:27;22.30;99.90
7206;DHT22;3644;53.480;10.004;2022-09-09T11:08:02;22.40;99.90
7206;DHT22;3644;53.480;10.004;2022-09-09T11:13:29;22.60;99.90
7206;DHT22;3644;53.480;10.004;2022-09-09T11:18:46;22.70;99.90
7206;DHT22;3644;53.480;10.004;2022-09-09T11:21:20;22.70;99.90
7206;DHT22;3644;53.480;10.004;2022-09-09T11:23:53;22.80;99.90
7206;DHT22;3644;53.480;10.004;2022-09-09T11:26:33;22.90;99.90
7206;DHT22;3644;53.480;10.004;2022-09-09T11:34:51;23.00;99.90
7206;DHT22;3644;53.480;10.004;2022-09-09T11:37:47;23.00;99.90
7206;DHT22;3644;53.480;10.004;2022-09-09T11:40:30;22.90;99.90
7206;DHT22;3644;53.480;10.004;2022-09-09T11:43:11;22.80;99.90
7206;DHT22;3644;53.480;10.004;2022-09-09T11:45:39;22.80;99.90
7206;DHT22;3644;53.480;10.004;2022-09-09T11:48:23;23.10;99.90
7206;DHT22;3644;53.480;10.004;2022-09-09T11:50:59;23.50;99.90
7206;DHT22;3644;53.480;10.004;2022-09-09T11:53:25;23.70;99.90
7206;DHT22;3644;53.480;10.004;2022-09-09T11:56:01;23.90;99.90
7206;DHT22;3644;53.480;10.004;2022-09-09T11:58:44;23.90;99.90
7206;DHT22;3644;53.480;10.004;2022-09-09T12:01:27;23.80;99.90
7206;DHT22;3644;53.480;10.004;2022-09-09T12:09:39;23.70;99.90
7206;DHT22;3644;53.480;10.004;2022-09-09T12:17:22;23.80;99.90
7206;DHT22;3644;53.480;10.004;2022-09-09T12:23:22;23.60;99.90
7206;DHT22;3644;53.480;10.004;2022-09-09T12:28:25;23.60;99.90
7206;DHT22;3644;53.480;10.004;2022-09-09T12:31:07;23.70;99.90
7206;DHT22;3644;53.480;10.004;2022-09-09T12:33:37;23.70;99.90
7206;DHT22;3644;53.480;10.004;2022-09-09T12:36:12;23.70;99.90
7206;DHT22;3644;53.480;10.004;2022-09-09T12:38:40;23.70;99.90
7206;DHT22;3644;53.480;10.004;2022-09-09T12:41:06;23.50;99.90
7206;DHT22;3644;53.480;10.004;2022-09-09T12:43:32;23.30;99.90
7206;DHT22;3644;53.480;10.004;2022-09-09T12:46:01;23.20;99.90
7206;DHT22;3644;53.480;10.004;2022-09-09T12:48:32;22.80;99.90
7206;DHT22;3644;53.480;10.004;2022-09-09T12:50:59;22.50;99.90
7206;DHT22;3644;53.480;10.004;2022-09-09T12:53:31;22.40;99.90
7206;DHT22;3644;53.480;10.004;2022-09-09T12:56:07;22.30;99.90
7206;DHT22;3644;53.480;10.004;2022-09-09T12:58:35;22.10;99.90
7206;DHT22;3644;53.480;10.004;2022-09-09T13:01:03;22.00;99.90
7206;DHT22;3644;53.480;10.004;2022-09-09T13:03:31;21.90;99.90
7206;DHT22;3644;53.480;10.004;2022-09-09T13:06:12;21.80;99.90
7206;DHT22;3644;53.480;10.004;2022-09-09T13:08:38;21.70;99.90
7206;DHT22;3644;53.480;10.004;2022-09-09T13:11:09;21.60;99.90
7206;DHT22;3644;53.480;10.004;2022-09-09T13:13:38;21.60;99.90
7206;DHT22;3644;53.480;10.004;2022-09-09T13:16:07;21.60;99.90
7206;DHT22;3644;53.480;10.004;2022-09-09T13:18:43;21.50;99.90
7206;DHT22;3644;53.480;10.004;2022-09-09T13:21:09;21.30;99.90
7206;DHT22;3644;53.480;10.004;2022-09-09T13:23:36;21.30;99.90
7206;DHT22;3644;53.480;10.004;2022-09-09T13:26:04;21.20;99.90
7206;DHT22;3644;53.480;10.004;2022-09-09T13:28:32;21.10;99.90
7206;DHT22;3644;53.480;10.004;2022-09-09T13:31:06;21.00;99.90
7206;DHT22;3644;53.480;10.004;2022-09-09T13:33:44;21.00;99.90
7206;DHT22;3644;53.480;10.004;2022-09-09T13:36:11;21.00;99.90
7206;DHT22;3644;53.480;10.004;2022-09-09T13:38:57;21.00;99.90
7206;DHT22;3644;53.480;10.004;2022-09-09T13:41:30;20.90;99.90
7206;DHT22;3644;53.480;10.004;2022-09-09T13:43:57;20.80;99.90
7206;DHT22;3644;53.480;10.004;2022-09-09T13:46:38;20.90;99.90
7206;DHT22;3644;53.480;10.004;2022-09-09T13:51:44;20.70;99.90
7206;DHT22;3644;53.480;10.004;2022-09-09T13:54:14;20.60;99.90
7206;DHT22;3644;53.480;10.004;2022-09-09T13:56:41;20.60;99.90
7206;DHT22;3644;53.480;10.004;2022-09-09T13:59:11;20.50;99.90
7206;DHT22;3644;53.480;10.004;2022-09-09T14:01:37;20.50;99.90
7206;DHT22;3644;53.480;10.004;2022-09-09T14:04:03;20.40;99.90
7206;DHT22;3644;53.480;10.004;2022-09-09T14:06:32;20.40;99.90
7206;DHT22;3644;53.480;10.004;2022-09-09T14:08:58;20.40;99.90
7206;DHT22;3644;53.480;10.004;2022-09-09T14:11:24;20.40;99.90
7206;DHT22;3644;53.480;10.004;2022-09-09T14:13:49;20.30;99.90
7206;DHT22;3644;53.480;10.004;2022-09-09T14:16:16;20.30;99.90
7206;DHT22;3644;53.480;10.004;2022-09-09T14:18:43;20.10;99.90
7206;DHT22;3644;53.480;10.004;2022-09-09T14:21:09;20.00;99.90
7206;DHT22;3644;53.480;10.004;2022-09-09T14:23:35;20.00;99.90
7206;DHT22;3644;53.480;10.004;2022-09-09T14:26:00;19.90;99.90
7206;DHT22;3644;53.480;10.004;2022-09-09T14:28:26;19.80;99.90
7206;DHT22;3644;53.480;10.004;2022-09-09T14:30:53;19.80;99.90
7206;DHT22;3644;53.480;10.004;2022-09-09T14:33:19;19.80;99.90
7206;DHT22;3644;53.480;10.004;2022-09-09T14:35:44;19.80;99.90
7206;DHT22;3644;53.480;10.004;2022-09-09T14:38:10;19.80;99.90
7206;DHT22;3644;53.480;10.004;2022-09-09T14:40:37;19.70;99.90
7206;DHT22;3644;53.480;10.004;2022-09-09T14:43:03;19.60;99.90
7206;DHT22;3644;53.480;10.004;2022-09-09T14:45:30;19.60;99.90
7206;DHT22;3644;53.480;10.004;2022-09-09T14:47:55;19.60;99.90
7206;DHT22;3644;53.480;10.004;2022-09-09T14:50:22;19.60;99.90
7206;DHT22;3644;53.480;10.004;2022-09-09T14:52:47;19.50;99.90
7206;DHT22;3644;53.480;10.004;2022-09-09T14:55:14;19.50;99.90
7206;DHT22;3644;53.480;10.004;2022-09-09T14:57:40;19.50;99.90
7206;DHT22;3644;53.480;10.004;2022-09-09T15:00:07;19.40;99.90
7206;DHT22;3644;53.480;10.004;2022-09-09T15:02:33;19.30;99.90
7206;DHT22;3644;53.480;10.004;2022-09-09T15:04:59;19.40;99.90
7206;DHT22;3644;53.480;10.004;2022-09-09T15:07:25;19.40;99.90
7206;DHT22;3644;53.480;10.004;2022-09-09T15:09:51;19.40;99.90
7206;DHT22;3644;53.480;10.004;2022-09-09T15:12:18;19.30;99.90
7206;DHT22;3644;53.480;10.004;2022-09-09T15:14:47;19.30;99.90
7206;DHT22;3644;53.480;10.004;2022-09-09T15:17:13;19.30;99.90
7206;DHT22;3644;53.480;10.004;2022-09-09T15:19:39;19.30;99.90
7206;DHT22;3644;53.480;10.004;2022-09-09T15:22:05;19.40;99.90
7206;DHT22;3644;53.480;10.004;2022-09-09T15:24:32;19.30;99.90
7206;DHT22;3644;53.480;10.004;2022-09-09T15:26:58;19.30;99.90
7206;DHT22;3644;53.480;10.004;2022-09-09T15:29:24;19.40;99.90
7206;DHT22;3644;53.480;10.004;2022-09-09T15:31:49;19.50;99.90
7206;DHT22;3644;53.480;10.004;2022-09-09T15:34:15;19.50;99.90
7206;DHT22;3644;53.480;10.004;2022-09-09T15:36:43;19.70;99.90
7206;DHT22;3644;53.480;10.004;2022-09-09T15:39:10;19.80;99.90
7206;DHT22;3644;53.480;10.004;2022-09-09T15:41:38;19.90;99.90
7206;DHT22;3644;53.480;10.004;2022-09-09T15:44:04;19.90;99.90
7206;DHT22;3644;53.480;10.004;2022-09-09T15:46:46;20.00;99.90
7206;DHT22;3644;53.480;10.004;2022-09-09T15:49:19;20.00;99.90
7206;DHT22;3644;53.480;10.004;2022-09-09T15:51:47;20.00;99.90
7206;DHT22;3644;53.480;10.004;2022-09-09T15:54:17;20.10;99.90
7206;DHT22;3644;53.480;10.004;2022-09-09T15:56:44;20.00;99.90
7206;DHT22;3644;53.480;10.004;2022-09-09T15:59:10;20.00;99.90
7206;DHT22;3644;53.480;10.004;2022-09-09T16:01:37;20.00;99.90
7206;DHT22;3644;53.480;10.004;2022-09-09T16:04:05;20.00;99.90
7206;DHT22;3644;53.480;10.004;2022-09-09T16:06:30;20.10;99.90
7206;DHT22;3644;53.480;10.004;2022-09-09T16:08:58;20.20;99.90
7206;DHT22;3644;53.480;10.004;2022-09-09T16:11:30;20.30;99.90
7206;DHT22;3644;53.480;10.004;2022-09-09T16:13:58;20.30;99.90
7206;DHT22;3644;53.480;10.004;2022-09-09T16:16:25;20.30;99.90
7206;DHT22;3644;53.480;10.004;2022-09-09T16:18:54;20.30;99.90
7206;DHT22;3644;53.480;10.004;2022-09-09T16:21:22;20.30;99.90
7206;DHT22;3644;53.480;10.004;2022-09-09T16:23:52;20.40;99.90
7206;DHT22;3644;53.480;10.004;2022-09-09T16:26:22;20.40;99.90
7206;DHT22;3644;53.480;10.004;2022-09-09T16:28:48;20.30;99.90
7206;DHT22;3644;53.480;10.004;2022-09-09T16:31:16;20.30;99.90
7206;DHT22;3644;53.480;10.004;2022-09-09T16:33:42;20.30;99.90
7206;DHT22;3644;53.480;10.004;2022-09-09T16:36:09;20.30;99.90
7206;DHT22;3644;53.480;10.004;2022-09-09T16:38:39;20.30;99.90
7206;DHT22;3644;53.480;10.004;2022-09-09T16:41:31;20.20;99.90
7206;DHT22;3644;53.480;10.004;2022-09-09T16:43:59;20.20;99.90
7206;DHT22;3644;53.480;10.004;2022-09-09T16:46:27;20.20;99.90
7206;DHT22;3644;53.480;10.004;2022-09-09T16:48:57;20.10;99.90
7206;DHT22;3644;53.480;10.004;2022-09-09T16:51:31;20.00;99.90
7206;DHT22;3644;53.480;10.004;2022-09-09T16:53:59;20.10;99.90
7206;DHT22;3644;53.480;10.004;2022-09-09T16:56:27;19.90;99.90
7206;DHT22;3644;53.480;10.004;2022-09-09T16:58:56;19.90;99.90
7206;DHT22;3644;53.480;10.004;2022-09-09T17:01:26;19.80;99.90
7206;DHT22;3644;53.480;10.004;2022-09-09T17:03:53;19.80;99.90
7206;DHT22;3644;53.480;10.004;2022-09-09T17:06:19;19.80;99.90
7206;DHT22;3644;53.480;10.004;2022-09-09T17:08:44;19.70;99.90
7206;DHT22;3644;53.480;10.004;2022-09-09T17:11:18;19.60;99.90
7206;DHT22;3644;53.480;10.004;2022-09-09T17:13:45;19.50;99.90
7206;DHT22;3644;53.480;10.004;2022-09-09T17:16:12;19.50;99.90
7206;DHT22;3644;53.480;10.004;2022-09-09T17:18:38;19.40;99.90
7206;DHT22;3644;53.480;10.004;2022-09-09T17:21:06;19.40;99.90
7206;DHT22;3644;53.480;10.004;2022-09-09T17:23:32;19.30;99.90
7206;DHT22;3644;53.480;10.004;2022-09-09T17:25:58;19.30;99.90
7206;DHT22;3644;53.480;10.004;2022-09-09T17:28:26;19.20;99.90
7206;DHT22;3644;53.480;10.004;2022-09-09T17:30:59;20.90;99.90
7206;DHT22;3644;53.480;10.004;2022-09-09T17:33:32;19.10;99.90
7206;DHT22;3644;53.480;10.004;2022-09-09T17:35:59;19.00;99.90
7206;DHT22;3644;53.480;10.004;2022-09-09T17:38:26;19.00;99.90
7206;DHT22;3644;53.480;10.004;2022-09-09T17:41:04;19.00;99.90
7206;DHT22;3644;53.480;10.004;2022-09-09T17:43:31;18.90;99.90
7206;DHT22;3644;53.480;10.004;2022-09-09T17:46:05;18.90;99.90
7206;DHT22;3644;53.480;10.004;2022-09-09T17:48:31;18.70;99.90
7206;DHT22;3644;53.480;10.004;2022-09-09T17:50:58;18.60;99.90
7206;DHT22;3644;53.480;10.004;2022-09-09T17:53:23;18.70;99.90
7206;DHT22;3644;53.480;10.004;2022-09-09T17:55:49;18.50;99.90
7206;DHT22;3644;53.480;10.004;2022-09-09T17:58:15;18.40;99.90
7206;DHT22;3644;53.480;10.004;2022-09-09T18:00:41;18.50;99.90
7206;DHT22;3644;53.480;10.004;2022-09-09T18:03:07;18.40;99.90
7206;DHT22;3644;53.480;10.004;2022-09-09T18:05:33;18.40;99.90
7206;DHT22;3644;53.480;10.004;2022-09-09T18:07:59;18.40;99.90